createdAt,value
2019-04-25T00:00:02.187Z,1.13
2019-04-25T00:02:42.261Z,1.00
2019-04-25T00:05:14.007Z,1.10
2019-04-25T00:07:44.952Z,1.50
2019-04-25T00:10:16.018Z,0.80
2019-04-25T00:12:46.651Z,0.90
2019-04-25T00:15:17.705Z,1.33
2019-04-25T00:17:48.314Z,1.33
2019-04-25T00:20:19.470Z,1.00
2019-04-25T00:23:02.026Z,0.80
2019-04-25T00:26:01.356Z,0.80
2019-04-25T00:28:32.103Z,0.87
2019-04-25T00:31:03.506Z,0.80
2019-04-25T00:33:34.007Z,1.13
2019-04-25T00:36:04.501Z,0.90
2019-04-25T00:38:34.967Z,0.90
2019-04-25T00:41:05.637Z,1.20
2019-04-25T00:43:36.121Z,0.80
2019-04-25T00:46:06.638Z,1.20
2019-04-25T00:48:37.097Z,1.00
2019-04-25T00:51:07.571Z,0.87
2019-04-25T00:53:38.071Z,0.80
2019-04-25T00:56:08.563Z,1.10
2019-04-25T00:59:16.091Z,0.77
2019-04-25T01:02:11.476Z,1.20
2019-04-25T01:04:43.028Z,1.13
2019-04-25T01:07:16.576Z,0.80
2019-04-25T01:09:47.717Z,0.90
2019-04-25T01:12:18.443Z,1.13
2019-04-25T01:14:48.866Z,1.10
2019-04-25T01:17:19.341Z,1.00
2019-04-25T01:19:49.812Z,0.93
2019-04-25T01:22:20.311Z,1.10
2019-04-25T01:24:53.864Z,1.00
2019-04-25T01:27:24.866Z,0.90
2019-04-25T01:29:56.347Z,1.10
2019-04-25T01:32:33.937Z,1.10
2019-04-25T01:35:18.507Z,1.43
2019-04-25T01:38:10.762Z,1.43
2019-04-25T01:40:55.617Z,0.90
2019-04-25T01:43:53.219Z,1.10
2019-04-25T01:46:25.393Z,1.30
2019-04-25T01:48:56.534Z,1.17
2019-04-25T01:51:27.103Z,1.60
2019-04-25T01:53:57.590Z,1.00
2019-04-25T01:56:28.036Z,1.10
2019-04-25T01:58:59.466Z,1.20
2019-04-25T02:01:30.282Z,1.17
2019-04-25T02:04:00.748Z,1.10
2019-04-25T02:06:31.355Z,1.10
2019-04-25T02:09:01.820Z,1.30
2019-04-25T02:11:57.354Z,1.10
2019-04-25T02:14:27.924Z,1.33
2019-04-25T02:16:58.771Z,1.20
2019-04-25T02:19:29.226Z,1.10
2019-04-25T02:21:59.944Z,1.13
2019-04-25T02:24:31.797Z,1.57
2019-04-25T02:27:04.414Z,1.60
2019-04-25T02:29:34.484Z,1.60
2019-04-25T02:32:08.931Z,1.40
2019-04-25T02:34:39.763Z,1.50
2019-04-25T02:37:10.262Z,1.37
2019-04-25T02:39:41.612Z,1.20
2019-04-25T02:42:14.323Z,1.40
2019-04-25T02:44:56.216Z,1.20
2019-04-25T02:47:46.307Z,1.40
2019-04-25T02:50:51.108Z,1.20
2019-04-25T02:53:44.667Z,1.30
2019-04-25T02:56:30.543Z,1.17
2019-04-25T02:58:50.840Z,1.17
2019-04-25T03:01:25.316Z,1.20
2019-04-25T03:03:54.675Z,1.33
2019-04-25T03:06:25.465Z,1.07
2019-04-25T03:08:57.795Z,1.27
2019-04-25T03:11:28.119Z,1.10
2019-04-25T03:14:00.142Z,1.23
2019-04-25T03:16:30.750Z,1.20
2019-04-25T03:19:14.250Z,1.40
2019-04-25T03:21:46.443Z,1.27
2019-04-25T03:24:17.129Z,1.23
2019-04-25T03:26:47.977Z,1.27
2019-04-25T03:29:18.439Z,1.20
2019-04-25T03:31:48.939Z,1.13
2019-04-25T03:34:20.780Z,1.20
2019-04-25T03:36:51.736Z,1.23
2019-04-25T03:39:24.187Z,1.10
2019-04-25T03:41:54.458Z,1.63
2019-04-25T03:44:25.332Z,1.63
2019-04-25T03:46:55.866Z,1.50
2019-04-25T03:49:26.363Z,1.40
2019-04-25T03:51:56.858Z,1.40
2019-04-25T03:54:27.443Z,1.47
2019-04-25T03:56:57.898Z,1.20
2019-04-25T03:59:28.348Z,1.23
2019-04-25T04:02:01.131Z,1.17
2019-04-25T04:04:31.049Z,1.20
2019-04-25T04:07:01.489Z,1.40
2019-04-25T04:09:33.698Z,1.53
2019-04-25T04:12:05.557Z,1.37
2019-04-25T04:14:36.801Z,1.23
2019-04-25T04:17:33.891Z,1.50
2019-04-25T04:20:36.037Z,1.70
2019-04-25T04:23:17.109Z,1.80
2019-04-25T04:25:47.569Z,1.30
2019-04-25T04:28:18.085Z,2.03
2019-04-25T04:30:48.768Z,4.23
2019-04-25T04:33:29.446Z,2.63
2019-04-25T04:35:51.573Z,1.70
2019-04-25T04:38:22.153Z,1.50
2019-04-25T04:40:52.633Z,1.40
2019-04-25T04:43:23.952Z,1.40
2019-04-25T04:45:55.373Z,1.27
2019-04-25T04:48:25.853Z,1.50
2019-04-25T04:50:56.356Z,1.53
2019-04-25T04:53:26.883Z,1.30
2019-04-25T04:55:57.436Z,1.60
2019-04-25T04:58:30.672Z,1.37
2019-04-25T05:01:01.143Z,1.63
2019-04-25T05:03:42.025Z,1.47
2019-04-25T05:06:20.855Z,1.60
2019-04-25T05:08:58.190Z,1.50
2019-04-25T05:11:28.849Z,1.60
2019-04-25T05:14:00.977Z,1.80
2019-04-25T05:16:34.361Z,1.90
2019-04-25T05:19:04.941Z,2.03
2019-04-25T05:21:35.527Z,2.23
2019-04-25T05:24:26.585Z,2.40
2019-04-25T05:26:57.564Z,2.80
2019-04-25T05:29:28.116Z,2.20
2019-04-25T05:31:58.649Z,2.33
2019-04-25T05:34:29.103Z,2.80
2019-04-25T05:37:01.673Z,3.13
2019-04-25T05:39:33.475Z,3.70
2019-04-25T05:42:09.837Z,3.20
2019-04-25T05:44:44.505Z,2.60
2019-04-25T05:47:16.003Z,2.40
2019-04-25T05:49:47.689Z,2.20
2019-04-25T05:52:18.309Z,1.80
2019-04-25T05:54:48.810Z,1.70
2019-04-25T05:57:19.431Z,1.57
2019-04-25T05:59:50.483Z,1.70
2019-04-25T06:02:21.571Z,1.17
2019-04-25T06:04:53.543Z,1.17
2019-04-25T06:07:25.824Z,1.40
2019-04-25T06:10:21.982Z,1.07
2019-04-25T06:13:26.460Z,1.20
2019-04-25T06:16:25.635Z,1.20
2019-04-25T06:19:19.588Z,1.30
2019-04-25T06:21:50.974Z,0.90
2019-04-25T06:24:40.339Z,1.00
2019-04-25T06:27:29.905Z,1.00
2019-04-25T06:30:04.407Z,0.80
2019-04-25T06:32:35.529Z,0.80
2019-04-25T06:35:09.438Z,1.27
2019-04-25T06:37:40.117Z,0.93
2019-04-25T06:40:11.725Z,0.80
2019-04-25T06:42:43.535Z,1.07
2019-04-25T06:45:41.842Z,0.70
2019-04-25T06:48:29.108Z,1.77
2019-04-25T06:50:59.624Z,0.83
2019-04-25T06:53:30.560Z,0.80
2019-04-25T06:56:01.542Z,0.67
2019-04-25T06:58:34.617Z,0.70
2019-04-25T07:01:05.227Z,0.77
2019-04-25T07:03:35.854Z,0.97
2019-04-25T07:06:06.905Z,0.40
2019-04-25T07:08:37.538Z,0.70
2019-04-25T07:11:07.980Z,0.67
2019-04-25T07:13:38.967Z,0.80
2019-04-25T07:16:09.616Z,0.57
2019-04-25T07:18:40.108Z,0.97
2019-04-25T07:21:10.633Z,0.70
2019-04-25T07:23:41.220Z,1.20
2019-04-25T07:26:26.107Z,1.13
2019-04-25T07:29:13.441Z,1.07
2019-04-25T07:32:06.090Z,0.70
2019-04-25T07:34:36.768Z,0.60
2019-04-25T07:37:07.223Z,0.80
2019-04-25T07:39:37.748Z,1.00
2019-04-25T07:42:08.232Z,0.77
2019-04-25T07:44:49.863Z,0.80
2019-04-25T07:47:11.204Z,0.90
2019-04-25T07:49:43.265Z,0.97
2019-04-25T07:52:13.963Z,0.87
2019-04-25T07:54:44.536Z,0.80
2019-04-25T07:57:15.266Z,0.70
2019-04-25T07:59:51.704Z,0.83
2019-04-25T08:02:23.320Z,0.53
2019-04-25T08:04:56.979Z,1.10
2019-04-25T08:07:28.145Z,0.70
2019-04-25T08:09:58.812Z,0.70
2019-04-25T08:12:30.494Z,0.87
2019-04-25T08:15:08.871Z,0.90
2019-04-25T08:18:08.035Z,0.60
2019-04-25T08:20:40.240Z,1.00
2019-04-25T08:23:11.628Z,0.90
2019-04-25T08:25:43.412Z,0.90
2019-04-25T08:28:13.985Z,0.80
2019-04-25T08:30:44.592Z,0.90
2019-04-25T08:33:15.146Z,0.80
2019-04-25T08:36:03.636Z,1.07
2019-04-25T08:38:18.216Z,3.40
2019-04-25T08:40:50.216Z,1.30
2019-04-25T08:43:20.824Z,0.80
2019-04-25T08:45:54.262Z,0.90
2019-04-25T08:48:27.917Z,0.83
2019-04-25T08:51:09.688Z,1.00
2019-04-25T08:53:56.074Z,1.00
2019-04-25T08:56:31.866Z,1.00
2019-04-25T08:59:34.177Z,1.70
2019-04-25T09:02:19.492Z,1.10
2019-04-25T09:05:14.373Z,1.10
2019-04-25T09:07:45.330Z,0.97
2019-04-25T09:10:16.118Z,1.10
2019-04-25T09:12:46.616Z,0.73
2019-04-25T09:15:17.273Z,0.90
2019-04-25T09:17:47.797Z,0.90
2019-04-25T09:20:18.821Z,0.73
2019-04-25T09:22:49.347Z,1.00
2019-04-25T09:25:19.957Z,0.90
2019-04-25T09:27:50.486Z,0.80
2019-04-25T09:30:21.000Z,0.67
2019-04-25T09:32:51.470Z,0.87
2019-04-25T09:35:23.660Z,1.10
2019-04-25T09:37:54.474Z,1.10
2019-04-25T09:40:25.181Z,1.10
2019-04-25T09:42:56.206Z,1.00
2019-04-25T09:45:46.127Z,1.10
2019-04-25T09:48:36.227Z,0.97
2019-04-25T09:51:14.589Z,1.33
2019-04-25T09:53:51.215Z,1.00
2019-04-25T09:56:27.206Z,0.97
2019-04-25T09:59:26.783Z,1.10
2019-04-25T10:01:50.446Z,0.97
2019-04-25T10:04:22.988Z,0.70
2019-04-25T10:06:53.953Z,1.00
2019-04-25T10:09:26.058Z,1.10
2019-04-25T10:11:56.533Z,0.80
2019-04-25T10:14:59.302Z,0.87
2019-04-25T10:17:30.851Z,0.93
2019-04-25T10:20:01.263Z,1.00
2019-04-25T10:22:31.817Z,0.93
2019-04-25T10:25:03.370Z,0.80
2019-04-25T10:27:34.217Z,0.90
2019-04-25T10:30:16.815Z,0.80
2019-04-25T10:32:41.149Z,0.90
2019-04-25T10:35:14.661Z,1.03
2019-04-25T10:37:45.593Z,0.90
2019-04-25T10:40:18.078Z,0.97
2019-04-25T10:42:50.370Z,0.80
2019-04-25T10:45:23.737Z,0.77
2019-04-25T10:47:54.991Z,1.20
2019-04-25T10:50:25.389Z,1.40
2019-04-25T10:52:56.193Z,0.70
2019-04-25T10:55:26.687Z,0.70
2019-04-25T10:57:57.186Z,1.00
2019-04-25T11:00:34.415Z,0.87
2019-04-25T11:03:30.815Z,0.87
2019-04-25T11:06:01.405Z,0.63
2019-04-25T11:08:33.876Z,1.00
2019-04-25T11:11:05.039Z,0.90
2019-04-25T11:13:36.122Z,0.83
2019-04-25T11:16:07.755Z,0.80
2019-04-25T11:18:38.343Z,0.70
2019-04-25T11:21:08.862Z,0.80
2019-04-25T11:23:39.371Z,0.80
2019-04-25T11:26:10.386Z,0.83
2019-04-25T11:28:45.129Z,0.70
2019-04-25T11:31:23.363Z,0.50
2019-04-25T11:33:54.502Z,0.70
2019-04-25T11:36:25.534Z,0.77
2019-04-25T11:39:13.474Z,0.70
2019-04-25T11:41:46.202Z,0.80
2019-04-25T11:44:16.408Z,0.60
2019-04-25T11:46:46.887Z,0.60
2019-04-25T11:49:17.785Z,0.77
2019-04-25T11:51:48.271Z,0.40
2019-04-25T11:54:19.993Z,0.90
2019-04-25T11:56:50.750Z,0.50
2019-04-25T11:59:21.405Z,1.00
2019-04-25T12:01:52.278Z,0.70
2019-04-25T12:04:23.906Z,0.60
2019-04-25T12:06:54.520Z,0.50
2019-04-25T12:09:25.335Z,0.43
2019-04-25T12:11:56.182Z,0.67
2019-04-25T12:14:28.657Z,0.37
2019-04-25T12:16:59.250Z,0.50
2019-04-25T12:19:35.773Z,0.60
2019-04-25T12:22:03.910Z,0.50
2019-04-25T12:24:34.776Z,0.50
2019-04-25T12:27:06.901Z,0.50
2019-04-25T12:29:38.897Z,0.73
2019-04-25T12:32:10.559Z,0.60
2019-04-25T12:34:41.001Z,0.60
2019-04-25T12:37:11.493Z,0.50
2019-04-25T12:39:41.991Z,0.30
2019-04-25T12:42:14.342Z,0.63
2019-04-25T12:44:59.081Z,0.70
2019-04-25T12:47:31.078Z,0.60
2019-04-25T12:50:01.588Z,0.70
2019-04-25T12:52:33.302Z,0.60
2019-04-25T12:55:05.399Z,0.60
2019-04-25T12:57:36.112Z,0.70
2019-04-25T13:00:07.455Z,0.73
2019-04-25T13:02:37.945Z,0.60
2019-04-25T13:05:10.238Z,0.60
2019-04-25T13:07:40.843Z,0.60
2019-04-25T13:10:13.141Z,0.70
2019-04-25T13:12:45.046Z,0.50
2019-04-25T13:15:16.026Z,0.70
2019-04-25T13:17:46.590Z,0.70
2019-04-25T13:20:17.733Z,0.50
2019-04-25T13:22:48.246Z,0.40
2019-04-25T13:25:20.534Z,0.53
2019-04-25T13:28:04.053Z,0.60
2019-04-25T13:31:01.378Z,0.60
2019-04-25T13:33:39.463Z,0.63
2019-04-25T13:36:12.661Z,0.63
2019-04-25T13:38:43.654Z,0.60
2019-04-25T13:41:15.542Z,0.77
2019-04-25T13:43:48.446Z,0.63
2019-04-25T13:46:21.523Z,0.87
2019-04-25T13:48:51.266Z,0.80
2019-04-25T13:51:23.013Z,0.63
2019-04-25T13:53:54.612Z,0.60
2019-04-25T13:56:27.163Z,0.90
2019-04-25T13:58:57.531Z,0.60
2019-04-25T14:01:28.041Z,0.67
2019-04-25T14:03:59.190Z,0.90
2019-04-25T14:06:30.367Z,1.03
2019-04-25T14:09:01.042Z,0.60
2019-04-25T14:11:32.719Z,0.80
2019-04-25T14:14:03.986Z,0.70
2019-04-25T14:17:05.140Z,0.70
2019-04-25T14:19:55.321Z,0.73
2019-04-25T14:22:26.410Z,0.70
2019-04-25T14:24:57.235Z,0.90
2019-04-25T14:27:28.083Z,0.97
2019-04-25T14:29:58.587Z,0.70
2019-04-25T14:32:30.133Z,0.90
2019-04-25T14:35:00.706Z,0.73
2019-04-25T14:37:38.404Z,0.87
2019-04-25T14:40:05.666Z,0.90
2019-04-25T14:42:36.670Z,1.30
2019-04-25T14:45:08.326Z,0.90
2019-04-25T14:47:39.158Z,0.60
2019-04-25T14:50:10.458Z,0.70
2019-04-25T14:52:41.047Z,0.90
2019-04-25T14:55:36.816Z,0.80
2019-04-25T14:58:13.612Z,0.77
2019-04-25T15:00:46.101Z,0.80
2019-04-25T15:03:16.717Z,0.80
2019-04-25T15:05:47.183Z,0.83
2019-04-25T15:08:19.321Z,1.03
2019-04-25T15:10:50.130Z,0.97
2019-04-25T15:13:20.743Z,1.00
2019-04-25T15:15:51.370Z,1.00
2019-04-25T15:18:23.524Z,0.80
2019-04-25T15:20:54.761Z,0.93
2019-04-25T15:23:25.453Z,0.80
2019-04-25T15:25:55.886Z,1.00
2019-04-25T15:28:27.488Z,1.00
2019-04-25T15:30:58.175Z,0.83
2019-04-25T15:33:28.696Z,0.90
2019-04-25T15:36:14.430Z,0.93
2019-04-25T15:38:57.269Z,1.20
2019-04-25T15:41:38.577Z,0.90
2019-04-25T15:44:27.042Z,1.37
2019-04-25T15:46:58.801Z,0.97
2019-04-25T15:49:29.352Z,0.97
2019-04-25T15:51:59.905Z,1.00
2019-04-25T15:54:30.477Z,1.03
2019-04-25T15:57:00.972Z,0.87
2019-04-25T15:59:31.619Z,1.10
2019-04-25T16:02:07.868Z,1.03
2019-04-25T16:04:34.749Z,0.83
2019-04-25T16:07:05.274Z,0.80
2019-04-25T16:09:37.248Z,0.90
2019-04-25T16:12:08.872Z,0.90
2019-04-25T16:14:39.416Z,1.13
2019-04-25T16:17:10.125Z,1.00
2019-04-25T16:19:41.241Z,0.80
2019-04-25T16:22:11.865Z,0.70
2019-04-25T16:24:42.436Z,1.10
2019-04-25T16:27:13.307Z,3.50
2019-04-25T16:29:43.899Z,1.97
2019-04-25T16:32:20.727Z,1.07
2019-04-25T16:34:50.739Z,1.17
2019-04-25T16:37:21.272Z,1.17
2019-04-25T16:40:02.035Z,1.00
2019-04-25T16:42:33.820Z,1.03
2019-04-25T16:45:05.100Z,1.10
2019-04-25T16:47:35.881Z,0.97
2019-04-25T16:50:07.213Z,1.00
2019-04-25T16:52:38.006Z,1.10
2019-04-25T16:55:10.395Z,0.93
2019-04-25T16:57:41.813Z,1.20
2019-04-25T17:00:34.056Z,1.10
2019-04-25T17:03:04.702Z,1.00
2019-04-25T17:05:37.510Z,1.43
2019-04-25T17:08:08.200Z,1.27
2019-04-25T17:10:39.533Z,0.93
2019-04-25T17:13:10.410Z,1.20
2019-04-25T17:15:59.022Z,0.80
2019-04-25T17:18:36.120Z,0.90
2019-04-25T17:21:11.613Z,1.20
2019-04-25T17:23:41.180Z,1.20
2019-04-25T17:26:13.134Z,0.97
2019-04-25T17:28:47.638Z,1.13
2019-04-25T17:31:46.842Z,1.20
2019-04-25T17:34:39.009Z,1.40
2019-04-25T17:37:22.128Z,1.10
2019-04-25T17:39:58.192Z,1.10
2019-04-25T17:42:30.803Z,0.90
2019-04-25T17:45:07.739Z,1.00
2019-04-25T17:47:38.587Z,0.90
2019-04-25T17:50:09.717Z,1.10
2019-04-25T17:52:40.652Z,1.33
2019-04-25T17:55:12.419Z,0.97
2019-04-25T17:57:45.764Z,1.10
2019-04-25T18:00:37.985Z,0.97
2019-04-25T18:03:13.345Z,0.93
2019-04-25T18:05:44.094Z,0.93
2019-04-25T18:08:15.623Z,0.87
2019-04-25T18:10:46.316Z,1.30
2019-04-25T18:13:17.004Z,7.63
2019-04-25T18:16:06.416Z,3.33
2019-04-25T18:19:04.922Z,0.87
2019-04-25T18:21:38.513Z,1.07
2019-04-25T18:24:37.421Z,0.87
2019-04-25T18:27:16.829Z,1.00
2019-04-25T18:29:47.573Z,0.90
2019-04-25T18:32:18.088Z,0.70
2019-04-25T18:34:58.101Z,0.90
2019-04-25T18:37:53.489Z,0.70
2019-04-25T18:40:36.616Z,0.90
2019-04-25T18:43:26.373Z,0.77
2019-04-25T18:46:03.714Z,0.70
2019-04-25T18:48:34.295Z,0.70
2019-04-25T18:51:05.071Z,0.70
2019-04-25T18:53:53.172Z,0.90
2019-04-25T18:56:31.996Z,1.00
2019-04-25T18:59:23.454Z,0.87
2019-04-25T19:02:13.106Z,0.90
2019-04-25T19:05:05.588Z,0.70
2019-04-25T19:07:38.474Z,0.60
2019-04-25T19:10:12.185Z,0.53
2019-04-25T19:12:45.523Z,0.80
2019-04-25T19:15:17.462Z,0.70
2019-04-25T19:17:48.509Z,0.70
2019-04-25T19:20:20.688Z,1.10
2019-04-25T19:22:52.559Z,0.80
2019-04-25T19:25:25.275Z,1.27
2019-04-25T19:27:59.043Z,0.70
2019-04-25T19:30:29.618Z,0.63
2019-04-25T19:33:00.142Z,0.73
2019-04-25T19:35:31.184Z,0.80
2019-04-25T19:38:03.586Z,0.70
2019-04-25T19:40:46.059Z,0.70
2019-04-25T19:43:25.828Z,0.80
2019-04-25T19:45:56.431Z,0.70
2019-04-25T19:48:28.542Z,0.73
2019-04-25T19:50:59.666Z,0.60
2019-04-25T19:53:30.239Z,0.80
2019-04-25T19:56:02.150Z,0.77
2019-04-25T19:58:32.736Z,0.93
2019-04-25T20:01:03.803Z,0.70
2019-04-25T20:03:49.123Z,0.77
2019-04-25T20:06:24.784Z,0.80
2019-04-25T20:09:12.600Z,0.90
2019-04-25T20:11:47.123Z,0.60
2019-04-25T20:14:18.978Z,0.90
2019-04-25T20:16:51.721Z,0.80
2019-04-25T20:19:23.018Z,0.60
2019-04-25T20:21:54.164Z,1.00
2019-04-25T20:24:24.939Z,0.80
2019-04-25T20:26:56.980Z,0.80
2019-04-25T20:29:27.470Z,0.70
2019-04-25T20:31:58.018Z,0.77
2019-04-25T20:34:28.559Z,0.80
2019-04-25T20:36:59.532Z,0.80
2019-04-25T20:39:30.541Z,0.80
2019-04-25T20:42:01.045Z,0.87
2019-04-25T20:44:32.689Z,0.77
2019-04-25T20:47:04.342Z,0.97
2019-04-25T20:49:35.147Z,0.70
2019-04-25T20:52:05.772Z,1.00
2019-04-25T20:54:36.379Z,0.67
2019-04-25T20:57:07.028Z,0.77
2019-04-25T20:59:37.649Z,0.67
2019-04-25T21:02:08.815Z,0.80
2019-04-25T21:04:39.404Z,1.07
2019-04-25T21:07:10.178Z,0.60
2019-04-25T21:09:40.954Z,0.57
2019-04-25T21:12:11.449Z,0.63
2019-04-25T21:15:13.615Z,0.90
2019-04-25T21:17:52.687Z,0.60
2019-04-25T21:20:28.702Z,0.80
2019-04-25T21:22:59.202Z,0.83
2019-04-25T21:25:29.663Z,0.90
2019-04-25T21:28:00.877Z,1.00
2019-04-25T21:30:31.407Z,0.57
2019-04-25T21:33:02.081Z,0.67
2019-04-25T21:35:33.104Z,0.70
2019-04-25T21:38:03.638Z,1.10
2019-04-25T21:41:12.800Z,0.87
2019-04-25T21:43:48.613Z,0.87
2019-04-25T21:46:19.441Z,0.70
2019-04-25T21:48:50.208Z,0.80
2019-04-25T21:51:33.541Z,1.00
2019-04-25T21:54:05.790Z,0.87
2019-04-25T21:56:37.609Z,0.80
2019-04-25T21:59:09.798Z,1.03
2019-04-25T22:01:42.037Z,0.90
2019-04-25T22:04:12.600Z,0.80
2019-04-25T22:06:43.463Z,0.80
2019-04-25T22:09:19.452Z,0.97
2019-04-25T22:11:50.409Z,0.60
2019-04-25T22:14:21.253Z,0.70
2019-04-25T22:16:52.128Z,0.77
2019-04-25T22:19:25.883Z,0.70
2019-04-25T22:21:59.039Z,0.80
2019-04-25T22:24:29.530Z,0.70
2019-04-25T22:27:03.257Z,0.70
2019-04-25T22:29:36.253Z,0.67
2019-04-25T22:32:30.744Z,0.90
2019-04-25T22:35:13.818Z,0.67
2019-04-25T22:37:44.353Z,0.60
2019-04-25T22:40:14.972Z,1.07
2019-04-25T22:42:45.496Z,0.87
2019-04-25T22:45:16.098Z,0.70
2019-04-25T22:47:47.571Z,0.80
2019-04-25T22:50:18.013Z,0.87
2019-04-25T22:52:48.525Z,0.67
2019-04-25T22:55:18.999Z,0.90
2019-04-25T22:57:49.756Z,0.80
2019-04-25T23:00:27.984Z,0.50
2019-04-25T23:03:03.458Z,0.93
2019-04-25T23:05:41.197Z,0.73
2019-04-25T23:08:12.621Z,0.70
2019-04-25T23:10:47.252Z,0.90
2019-04-25T23:13:17.724Z,0.70
2019-04-25T23:15:48.320Z,0.90
2019-04-25T23:18:19.070Z,0.80
2019-04-25T23:20:49.599Z,0.90
2019-04-25T23:23:20.354Z,1.00
2019-04-25T23:26:14.109Z,1.17
2019-04-25T23:28:45.072Z,1.13
2019-04-25T23:31:26.502Z,0.80
2019-04-25T23:33:58.856Z,0.83
2019-04-25T23:36:29.332Z,0.80
2019-04-25T23:38:59.822Z,0.73
2019-04-25T23:41:30.688Z,0.97
2019-04-25T23:44:01.163Z,1.03
2019-04-25T23:46:32.058Z,0.90
2019-04-25T23:49:02.669Z,1.00
2019-04-25T23:51:33.277Z,0.83
2019-04-25T23:54:04.259Z,1.07
2019-04-25T23:56:34.849Z,1.03
2019-04-25T23:59:07.368Z,0.87
